SWA218 KMDW-MMUN
Flight info
| Callsign | SWA218 |
|---|---|
| Flight time | 3h 19m |
| Altitude | 36000 |
| Route | BACEN DCT BLOKR DCT BEKKI DCT ENL DCT NTREE DCT MHZ DCT MCB DCT LEV A770 KEHLI UL209 BETAS DCT VOMAR VOMAR1A |
| Aircraft | B38M/M-SADE2E3GHIJ4J7P2RWZ/LB1D1 |
Departure
| Time | 2026-05-07 14:35 |
|---|---|
| Airport | Chicago Midway International Airport (KMDW) |
Arrival
| Time | 2026-05-07 17:55 |
|---|---|
| Airport | Cancún International Airport (MMUN) |
| Time | Latitude | Longitude | Altitude | Speed | Heading |
|---|---|---|---|---|---|
| 2026-05-07 13:59 | 41.78540 | -87.74363 | 631 ft | 0 kts | 134° |
| 2026-05-07 14:23 | 41.78549 | -87.74375 | 635 ft | 4 kts | 137° |
| 2026-05-07 14:23 | 41.78570 | -87.74397 | 634 ft | 4 kts | 156° |
| 2026-05-07 14:24 | 41.78593 | -87.74401 | 631 ft | 4 kts | 207° |
| 2026-05-07 14:24 | 41.78600 | -87.74395 | 636 ft | 0 kts | 223° |
| 2026-05-07 14:31 | 41.78599 | -87.74396 | 636 ft | 1 kts | 223° |
| 2026-05-07 14:31 | 41.78573 | -87.74429 | 638 ft | 11 kts | 223° |
| 2026-05-07 14:32 | 41.78504 | -87.74517 | 632 ft | 14 kts | 223° |
| 2026-05-07 14:32 | 41.78479 | -87.74604 | 631 ft | 11 kts | 301° |
| 2026-05-07 14:32 | 41.78535 | -87.74683 | 631 ft | 13 kts | 313° |
| 2026-05-07 14:32 | 41.78612 | -87.74779 | 639 ft | 16 kts | 334° |
| 2026-05-07 14:33 | 41.78716 | -87.74762 | 637 ft | 16 kts | 43° |
| 2026-05-07 14:33 | 41.78800 | -87.74655 | 633 ft | 17 kts | 43° |
| 2026-05-07 14:33 | 41.78869 | -87.74568 | 635 ft | 14 kts | 43° |
| 2026-05-07 14:33 | 41.78944 | -87.74474 | 634 ft | 16 kts | 43° |
| 2026-05-07 14:34 | 41.79027 | -87.74368 | 633 ft | 16 kts | 44° |
| 2026-05-07 14:34 | 41.79109 | -87.74265 | 636 ft | 11 kts | 36° |
| 2026-05-07 14:34 | 41.79174 | -87.74288 | 636 ft | 11 kts | 311° |
| 2026-05-07 14:34 | 41.79164 | -87.74353 | 632 ft | 11 kts | 221° |
| 2026-05-07 14:35 | 41.78999 | -87.74558 | 634 ft | 71 kts | 224° |
| 2026-05-07 14:35 | 41.78435 | -87.75281 | 634 ft | 149 kts | 224° |
| 2026-05-07 14:35 | 41.77577 | -87.76361 | 1116 ft | 180 kts | 223° |
| 2026-05-07 14:35 | 41.76665 | -87.77465 | 1874 ft | 177 kts | 225° |
| 2026-05-07 14:36 | 41.75766 | -87.78585 | 2190 ft | 176 kts | 223° |
| 2026-05-07 14:36 | 41.74725 | -87.79546 | 2437 ft | 191 kts | 211° |
| 2026-05-07 14:36 | 41.73487 | -87.80393 | 2592 ft | 209 kts | 210° |
| 2026-05-07 14:36 | 41.72131 | -87.81299 | 2605 ft | 224 kts | 209° |
| 2026-05-07 14:37 | 41.70699 | -87.82265 | 3133 ft | 232 kts | 210° |
| 2026-05-07 14:37 | 41.67652 | -87.84354 | 5049 ft | 257 kts | 211° |
| 2026-05-07 14:37 | 41.66051 | -87.85462 | 6191 ft | 261 kts | 212° |
| 2026-05-07 14:38 | 41.64425 | -87.86588 | 6981 ft | 267 kts | 212° |
| 2026-05-07 14:38 | 41.62769 | -87.87734 | 7778 ft | 269 kts | 213° |
| 2026-05-07 14:38 | 41.61091 | -87.88895 | 8534 ft | 273 kts | 213° |
| 2026-05-07 14:38 | 41.59391 | -87.90070 | 9326 ft | 277 kts | 214° |
| 2026-05-07 14:39 | 41.57672 | -87.91258 | 10082 ft | 280 kts | 214° |
| 2026-05-07 14:39 | 41.55938 | -87.92456 | 10620 ft | 290 kts | 214° |
| 2026-05-07 14:39 | 41.54132 | -87.93702 | 11337 ft | 291 kts | 214° |
| 2026-05-07 14:39 | 41.52325 | -87.94949 | 12059 ft | 296 kts | 214° |
| 2026-05-07 14:40 | 41.50486 | -87.96216 | 12878 ft | 297 kts | 214° |
| 2026-05-07 14:40 | 41.48643 | -87.97487 | 13743 ft | 299 kts | 214° |
| 2026-05-07 14:40 | 41.46790 | -87.98763 | 14500 ft | 302 kts | 214° |
| 2026-05-07 14:40 | 41.44922 | -88.00048 | 15273 ft | 303 kts | 214° |
| 2026-05-07 14:41 | 41.43038 | -88.01344 | 16057 ft | 305 kts | 214° |
| 2026-05-07 14:41 | 41.41141 | -88.02639 | 16827 ft | 309 kts | 213° |
| 2026-05-07 14:41 | 41.39056 | -88.03533 | 17573 ft | 319 kts | 202° |
| 2026-05-07 14:41 | 41.36893 | -88.04265 | 18265 ft | 323 kts | 202° |
| 2026-05-07 14:42 | 41.34707 | -88.05013 | 18903 ft | 325 kts | 203° |
| 2026-05-07 14:42 | 41.32518 | -88.05762 | 19547 ft | 326 kts | 204° |
| 2026-05-07 14:42 | 41.30342 | -88.06505 | 20141 ft | 328 kts | 204° |
| 2026-05-07 14:42 | 41.28121 | -88.07263 | 20748 ft | 330 kts | 205° |
| 2026-05-07 14:43 | 41.25894 | -88.08022 | 21353 ft | 332 kts | 205° |
| 2026-05-07 14:43 | 41.23588 | -88.08702 | 21937 ft | 337 kts | 203° |
| 2026-05-07 14:43 | 41.21318 | -88.09346 | 22492 ft | 339 kts | 204° |
| 2026-05-07 14:43 | 41.19004 | -88.10009 | 23059 ft | 341 kts | 204° |
| 2026-05-07 14:44 | 41.16678 | -88.10677 | 23594 ft | 344 kts | 205° |
| 2026-05-07 14:44 | 41.14329 | -88.11351 | 24052 ft | 346 kts | 205° |
| 2026-05-07 14:44 | 41.11974 | -88.12029 | 24499 ft | 347 kts | 205° |
| 2026-05-07 14:44 | 41.09606 | -88.12708 | 24947 ft | 349 kts | 205° |
| 2026-05-07 14:45 | 41.07229 | -88.13391 | 25370 ft | 351 kts | 205° |
| 2026-05-07 14:45 | 41.04838 | -88.14077 | 25814 ft | 353 kts | 205° |
| 2026-05-07 14:45 | 41.02432 | -88.14767 | 26246 ft | 355 kts | 205° |
| 2026-05-07 14:45 | 41.00014 | -88.15461 | 26664 ft | 356 kts | 205° |
| 2026-05-07 14:46 | 40.97582 | -88.16156 | 27071 ft | 358 kts | 205° |
| 2026-05-07 14:46 | 40.95135 | -88.16856 | 27482 ft | 360 kts | 205° |
| 2026-05-07 14:46 | 40.92715 | -88.17548 | 27873 ft | 362 kts | 205° |
| 2026-05-07 14:46 | 40.90242 | -88.18255 | 28252 ft | 364 kts | 205° |
| 2026-05-07 14:47 | 40.87763 | -88.18963 | 28637 ft | 366 kts | 205° |
| 2026-05-07 14:47 | 40.85268 | -88.19675 | 28937 ft | 370 kts | 205° |
| 2026-05-07 14:47 | 40.82704 | -88.20409 | 28909 ft | 382 kts | 205° |
| 2026-05-07 14:47 | 40.80071 | -88.21159 | 28934 ft | 393 kts | 204° |
| 2026-05-07 14:48 | 40.74587 | -88.22718 | 28982 ft | 413 kts | 204° |
| 2026-05-07 14:48 | 40.68837 | -88.24350 | 28999 ft | 432 kts | 203° |
| 2026-05-07 14:49 | 40.65880 | -88.25187 | 29137 ft | 438 kts | 203° |
| 2026-05-07 14:49 | 40.62885 | -88.26035 | 29470 ft | 440 kts | 203° |
| 2026-05-07 14:49 | 40.59897 | -88.26880 | 29882 ft | 440 kts | 203° |
| 2026-05-07 14:49 | 40.56906 | -88.27726 | 30312 ft | 438 kts | 203° |
| 2026-05-07 14:50 | 40.53927 | -88.28568 | 30693 ft | 437 kts | 203° |
| 2026-05-07 14:50 | 40.50951 | -88.29408 | 31054 ft | 436 kts | 203° |
| 2026-05-07 14:50 | 40.47982 | -88.30246 | 31415 ft | 435 kts | 203° |
| 2026-05-07 14:50 | 40.45026 | -88.31079 | 31785 ft | 434 kts | 203° |
| 2026-05-07 14:51 | 40.42073 | -88.31910 | 32148 ft | 433 kts | 203° |
| 2026-05-07 14:51 | 40.39128 | -88.32739 | 32504 ft | 433 kts | 203° |
| 2026-05-07 14:51 | 40.36231 | -88.33553 | 32836 ft | 432 kts | 203° |
| 2026-05-07 14:51 | 40.33294 | -88.34378 | 33186 ft | 431 kts | 203° |
| 2026-05-07 14:52 | 40.30439 | -88.35406 | 33512 ft | 421 kts | 208° |
| 2026-05-07 14:52 | 40.27657 | -88.36609 | 33838 ft | 421 kts | 209° |
| 2026-05-07 14:52 | 40.24881 | -88.37819 | 34153 ft | 420 kts | 209° |
| 2026-05-07 14:52 | 40.22111 | -88.39032 | 34398 ft | 420 kts | 209° |
| 2026-05-07 14:53 | 40.19345 | -88.40244 | 34628 ft | 420 kts | 209° |
| 2026-05-07 14:53 | 40.16565 | -88.41462 | 34857 ft | 420 kts | 209° |
| 2026-05-07 14:53 | 40.13789 | -88.42677 | 35095 ft | 420 kts | 209° |
| 2026-05-07 14:53 | 40.11015 | -88.43890 | 35319 ft | 421 kts | 209° |
| 2026-05-07 14:54 | 40.08245 | -88.45100 | 35535 ft | 421 kts | 209° |
| 2026-05-07 14:54 | 40.05467 | -88.46313 | 35757 ft | 421 kts | 209° |
| 2026-05-07 14:54 | 40.02689 | -88.47524 | 35976 ft | 421 kts | 209° |
| 2026-05-07 14:54 | 39.99904 | -88.48738 | 36094 ft | 422 kts | 209° |
| 2026-05-07 14:55 | 39.94342 | -88.51158 | 36084 ft | 420 kts | 209° |
| 2026-05-07 14:55 | 39.88791 | -88.53570 | 36084 ft | 421 kts | 209° |
| 2026-05-07 14:56 | 39.83232 | -88.55981 | 36090 ft | 421 kts | 209° |
| 2026-05-07 14:56 | 39.77672 | -88.58388 | 36086 ft | 421 kts | 209° |
| 2026-05-07 14:57 | 39.72108 | -88.60794 | 36090 ft | 422 kts | 209° |
| 2026-05-07 14:57 | 39.66534 | -88.63200 | 36095 ft | 422 kts | 209° |
| 2026-05-07 14:58 | 39.60961 | -88.65600 | 36092 ft | 422 kts | 209° |
| 2026-05-07 14:58 | 39.55394 | -88.67994 | 36092 ft | 422 kts | 209° |
| 2026-05-07 14:59 | 39.49823 | -88.70386 | 36088 ft | 422 kts | 209° |
| 2026-05-07 14:59 | 39.44254 | -88.72773 | 36091 ft | 422 kts | 209° |
| 2026-05-07 15:00 | 39.38719 | -88.75141 | 36096 ft | 421 kts | 209° |
| 2026-05-07 15:00 | 39.33157 | -88.77517 | 36096 ft | 421 kts | 209° |
| 2026-05-07 15:01 | 39.27601 | -88.79886 | 36098 ft | 420 kts | 209° |
| 2026-05-07 15:01 | 39.22042 | -88.82253 | 36096 ft | 420 kts | 209° |
| 2026-05-07 15:02 | 39.16462 | -88.84625 | 36095 ft | 419 kts | 209° |
| 2026-05-07 15:02 | 39.10919 | -88.86977 | 36097 ft | 419 kts | 209° |
| 2026-05-07 15:03 | 39.05398 | -88.89316 | 36101 ft | 418 kts | 209° |
| 2026-05-07 15:03 | 38.99909 | -88.91637 | 36099 ft | 417 kts | 209° |
| 2026-05-07 15:04 | 38.94404 | -88.93962 | 36101 ft | 416 kts | 209° |
| 2026-05-07 15:04 | 38.89799 | -88.95903 | 36111 ft | 415 kts | 209° |
| 2026-05-07 15:05 | 38.84314 | -88.98212 | 36120 ft | 415 kts | 209° |
| 2026-05-07 15:05 | 38.78830 | -89.00517 | 36118 ft | 414 kts | 209° |
| 2026-05-07 15:06 | 38.73393 | -89.02798 | 36121 ft | 413 kts | 210° |
| 2026-05-07 15:06 | 38.67888 | -89.05105 | 36120 ft | 413 kts | 210° |
| 2026-05-07 15:07 | 38.62471 | -89.07370 | 36121 ft | 412 kts | 210° |
| 2026-05-07 15:07 | 38.57019 | -89.09648 | 36122 ft | 412 kts | 210° |
| 2026-05-07 15:08 | 38.51571 | -89.11920 | 36167 ft | 413 kts | 210° |
| 2026-05-07 15:08 | 38.46133 | -89.14184 | 36121 ft | 411 kts | 210° |
| 2026-05-07 15:09 | 38.40616 | -89.16223 | 36125 ft | 421 kts | 204° |
| 2026-05-07 15:09 | 38.34873 | -89.17691 | 36117 ft | 421 kts | 204° |
| 2026-05-07 15:10 | 38.29087 | -89.19149 | 36119 ft | 421 kts | 204° |
| 2026-05-07 15:10 | 38.23387 | -89.20579 | 36117 ft | 420 kts | 204° |
| 2026-05-07 15:11 | 38.17645 | -89.22018 | 36119 ft | 420 kts | 204° |
| 2026-05-07 15:11 | 38.11922 | -89.23450 | 36119 ft | 419 kts | 204° |
| 2026-05-07 15:12 | 38.06205 | -89.24878 | 36123 ft | 419 kts | 204° |
| 2026-05-07 15:12 | 38.00492 | -89.26302 | 36127 ft | 418 kts | 204° |
| 2026-05-07 15:13 | 37.94782 | -89.27724 | 36128 ft | 418 kts | 204° |
| 2026-05-07 15:13 | 37.89083 | -89.29140 | 36132 ft | 417 kts | 205° |
| 2026-05-07 15:14 | 37.83388 | -89.30554 | 36129 ft | 416 kts | 205° |
| 2026-05-07 15:14 | 37.77722 | -89.31958 | 36132 ft | 414 kts | 205° |
| 2026-05-07 15:15 | 37.72076 | -89.33355 | 36126 ft | 412 kts | 205° |
| 2026-05-07 15:15 | 37.66457 | -89.34743 | 36127 ft | 410 kts | 205° |
| 2026-05-07 15:16 | 37.60866 | -89.36122 | 36128 ft | 409 kts | 206° |
| 2026-05-07 15:16 | 37.55296 | -89.37498 | 36120 ft | 406 kts | 206° |
| 2026-05-07 15:17 | 37.49750 | -89.38858 | 36124 ft | 406 kts | 206° |
| 2026-05-07 15:17 | 37.44209 | -89.40218 | 36128 ft | 405 kts | 206° |
| 2026-05-07 15:18 | 37.38682 | -89.41572 | 36133 ft | 404 kts | 206° |
| 2026-05-07 15:18 | 37.33180 | -89.42920 | 36132 ft | 402 kts | 206° |
| 2026-05-07 15:19 | 37.27694 | -89.44260 | 36135 ft | 401 kts | 207° |
| 2026-05-07 15:19 | 37.22226 | -89.45595 | 36140 ft | 400 kts | 207° |
| 2026-05-07 15:20 | 37.16774 | -89.46923 | 36135 ft | 398 kts | 207° |
| 2026-05-07 15:20 | 37.11331 | -89.48248 | 36132 ft | 397 kts | 207° |
| 2026-05-07 15:21 | 37.05948 | -89.49556 | 36124 ft | 396 kts | 207° |
| 2026-05-07 15:21 | 37.00543 | -89.50867 | 36134 ft | 396 kts | 207° |
| 2026-05-07 15:22 | 36.95146 | -89.52175 | 36129 ft | 395 kts | 207° |
| 2026-05-07 15:22 | 36.89747 | -89.53481 | 36129 ft | 395 kts | 207° |
| 2026-05-07 15:23 | 36.84356 | -89.54783 | 36132 ft | 394 kts | 207° |
| 2026-05-07 15:23 | 36.78966 | -89.56083 | 36130 ft | 394 kts | 207° |
| 2026-05-07 15:24 | 36.73589 | -89.57379 | 36127 ft | 394 kts | 207° |
| 2026-05-07 15:24 | 36.68215 | -89.58671 | 36128 ft | 393 kts | 207° |
| 2026-05-07 15:25 | 36.62839 | -89.59963 | 36128 ft | 393 kts | 207° |
| 2026-05-07 15:25 | 36.57464 | -89.61252 | 36134 ft | 393 kts | 207° |
| 2026-05-07 15:26 | 36.52085 | -89.62541 | 36134 ft | 393 kts | 207° |
| 2026-05-07 15:26 | 36.46718 | -89.63824 | 36132 ft | 393 kts | 207° |
| 2026-05-07 15:27 | 36.41349 | -89.65107 | 36125 ft | 393 kts | 207° |
| 2026-05-07 15:27 | 36.35984 | -89.66386 | 36135 ft | 393 kts | 207° |
| 2026-05-07 15:28 | 36.30619 | -89.67664 | 36131 ft | 392 kts | 207° |
| 2026-05-07 15:28 | 36.25263 | -89.68938 | 36129 ft | 392 kts | 207° |
| 2026-05-07 15:29 | 36.19898 | -89.70212 | 36134 ft | 392 kts | 207° |
| 2026-05-07 15:29 | 36.14534 | -89.71485 | 36132 ft | 393 kts | 207° |
| 2026-05-07 15:30 | 36.09160 | -89.72757 | 36131 ft | 393 kts | 207° |
| 2026-05-07 15:30 | 36.03793 | -89.74027 | 36131 ft | 393 kts | 207° |
| 2026-05-07 15:31 | 35.98418 | -89.75296 | 36129 ft | 394 kts | 207° |
| 2026-05-07 15:31 | 35.93026 | -89.76568 | 36129 ft | 394 kts | 207° |
| 2026-05-07 15:32 | 35.87639 | -89.77838 | 36129 ft | 394 kts | 207° |
| 2026-05-07 15:32 | 35.82282 | -89.79098 | 36129 ft | 395 kts | 207° |
| 2026-05-07 15:33 | 35.76887 | -89.80366 | 36130 ft | 395 kts | 207° |
| 2026-05-07 15:33 | 35.71354 | -89.81371 | 36135 ft | 408 kts | 201° |
| 2026-05-07 15:34 | 35.65723 | -89.81905 | 36132 ft | 409 kts | 201° |
| 2026-05-07 15:34 | 35.60002 | -89.82425 | 36116 ft | 409 kts | 201° |
| 2026-05-07 15:35 | 35.54360 | -89.82935 | 36112 ft | 409 kts | 201° |
| 2026-05-07 15:35 | 35.48634 | -89.83452 | 36110 ft | 410 kts | 201° |
| 2026-05-07 15:36 | 35.42946 | -89.83964 | 36115 ft | 410 kts | 201° |
| 2026-05-07 15:36 | 35.37300 | -89.84472 | 36111 ft | 410 kts | 201° |
| 2026-05-07 15:37 | 35.31607 | -89.84983 | 36109 ft | 410 kts | 201° |
| 2026-05-07 15:37 | 35.25918 | -89.85493 | 36110 ft | 410 kts | 200° |
| 2026-05-07 15:38 | 35.20223 | -89.86003 | 36116 ft | 410 kts | 200° |
| 2026-05-07 15:38 | 35.14532 | -89.86512 | 36129 ft | 410 kts | 200° |
| 2026-05-07 15:39 | 35.08837 | -89.87021 | 36127 ft | 410 kts | 200° |
| 2026-05-07 15:39 | 35.03148 | -89.87528 | 36132 ft | 410 kts | 200° |
| 2026-05-07 15:40 | 34.97461 | -89.88035 | 36130 ft | 409 kts | 200° |
| 2026-05-07 15:40 | 34.91778 | -89.88540 | 36127 ft | 410 kts | 200° |
| 2026-05-07 15:41 | 34.86051 | -89.89049 | 36124 ft | 409 kts | 200° |
| 2026-05-07 15:41 | 34.80413 | -89.89549 | 36124 ft | 409 kts | 200° |
| 2026-05-07 15:42 | 34.74730 | -89.90052 | 36114 ft | 409 kts | 200° |
| 2026-05-07 15:42 | 34.69048 | -89.90555 | 36110 ft | 409 kts | 200° |
| 2026-05-07 15:43 | 34.63369 | -89.91056 | 36107 ft | 409 kts | 200° |
| 2026-05-07 15:43 | 34.57691 | -89.91557 | 36107 ft | 409 kts | 200° |
| 2026-05-07 15:44 | 34.52020 | -89.92057 | 36114 ft | 409 kts | 200° |
| 2026-05-07 15:44 | 34.46331 | -89.92557 | 36112 ft | 409 kts | 199° |
| 2026-05-07 15:45 | 34.40650 | -89.93056 | 36113 ft | 409 kts | 199° |
| 2026-05-07 15:45 | 34.35003 | -89.93551 | 36113 ft | 410 kts | 199° |
| 2026-05-07 15:46 | 34.26471 | -89.94299 | 36111 ft | 410 kts | 199° |
| 2026-05-07 15:47 | 34.20782 | -89.94796 | 36112 ft | 410 kts | 199° |
| 2026-05-07 15:47 | 34.15089 | -89.95293 | 36105 ft | 411 kts | 199° |
| 2026-05-07 15:48 | 34.09383 | -89.95790 | 36108 ft | 411 kts | 199° |
| 2026-05-07 15:48 | 34.03671 | -89.96288 | 36102 ft | 412 kts | 199° |
| 2026-05-07 15:49 | 33.98919 | -89.96701 | 36104 ft | 412 kts | 199° |
| 2026-05-07 15:49 | 33.93194 | -89.97198 | 36099 ft | 413 kts | 198° |
| 2026-05-07 15:50 | 33.87458 | -89.97696 | 36096 ft | 414 kts | 198° |
| 2026-05-07 15:50 | 33.81709 | -89.98194 | 36100 ft | 415 kts | 198° |
| 2026-05-07 15:51 | 33.75937 | -89.98693 | 36098 ft | 416 kts | 198° |
| 2026-05-07 15:51 | 33.70152 | -89.99193 | 36101 ft | 417 kts | 198° |
| 2026-05-07 15:52 | 33.64358 | -89.99693 | 36101 ft | 418 kts | 198° |
| 2026-05-07 15:52 | 33.58560 | -90.00192 | 36102 ft | 418 kts | 198° |
| 2026-05-07 15:53 | 33.52761 | -90.00691 | 36104 ft | 418 kts | 198° |
| 2026-05-07 15:53 | 33.46957 | -90.01190 | 36103 ft | 418 kts | 197° |
| 2026-05-07 15:54 | 33.41143 | -90.01689 | 36101 ft | 419 kts | 197° |
| 2026-05-07 15:54 | 33.35337 | -90.02186 | 36099 ft | 419 kts | 197° |
| 2026-05-07 15:55 | 33.29527 | -90.02684 | 36091 ft | 418 kts | 197° |
| 2026-05-07 15:55 | 33.23718 | -90.03180 | 36087 ft | 418 kts | 197° |
| 2026-05-07 15:56 | 33.17921 | -90.03675 | 36084 ft | 418 kts | 197° |
| 2026-05-07 15:56 | 33.12156 | -90.04166 | 36074 ft | 418 kts | 197° |
| 2026-05-07 15:57 | 33.06357 | -90.04660 | 36071 ft | 418 kts | 197° |
| 2026-05-07 15:57 | 33.00559 | -90.05153 | 36073 ft | 418 kts | 197° |
| 2026-05-07 15:58 | 32.94751 | -90.05646 | 36071 ft | 419 kts | 197° |
| 2026-05-07 15:58 | 32.88941 | -90.06139 | 36068 ft | 419 kts | 197° |
| 2026-05-07 15:59 | 32.83123 | -90.06631 | 36068 ft | 419 kts | 196° |
| 2026-05-07 15:59 | 32.77300 | -90.07124 | 36073 ft | 420 kts | 196° |
| 2026-05-07 16:00 | 32.71463 | -90.07617 | 36074 ft | 420 kts | 196° |
| 2026-05-07 16:00 | 32.65625 | -90.08109 | 36073 ft | 421 kts | 196° |
| 2026-05-07 16:01 | 32.59788 | -90.08601 | 36073 ft | 421 kts | 196° |
| 2026-05-07 16:01 | 32.53934 | -90.09094 | 36082 ft | 422 kts | 196° |
| 2026-05-07 16:02 | 32.48077 | -90.09586 | 36091 ft | 422 kts | 196° |
| 2026-05-07 16:02 | 32.42255 | -90.10201 | 36094 ft | 417 kts | 199° |
| 2026-05-07 16:03 | 32.36510 | -90.11038 | 36085 ft | 418 kts | 198° |
| 2026-05-07 16:03 | 32.30688 | -90.11860 | 36085 ft | 419 kts | 198° |
| 2026-05-07 16:04 | 32.24899 | -90.12675 | 36086 ft | 419 kts | 198° |
| 2026-05-07 16:04 | 32.19140 | -90.13484 | 36086 ft | 419 kts | 198° |
| 2026-05-07 16:05 | 32.13343 | -90.14298 | 36080 ft | 419 kts | 198° |
| 2026-05-07 16:05 | 32.07548 | -90.15110 | 36078 ft | 420 kts | 198° |
| 2026-05-07 16:06 | 32.01738 | -90.15923 | 36072 ft | 420 kts | 198° |
| 2026-05-07 16:06 | 31.95939 | -90.16734 | 36067 ft | 420 kts | 198° |
| 2026-05-07 16:07 | 31.90131 | -90.17545 | 36066 ft | 420 kts | 198° |
| 2026-05-07 16:07 | 31.84327 | -90.18354 | 36069 ft | 420 kts | 198° |
| 2026-05-07 16:08 | 31.78502 | -90.19166 | 36071 ft | 421 kts | 198° |
| 2026-05-07 16:08 | 31.72720 | -90.19969 | 36070 ft | 421 kts | 197° |
| 2026-05-07 16:09 | 31.66900 | -90.20778 | 36070 ft | 421 kts | 197° |
| 2026-05-07 16:09 | 31.61071 | -90.21587 | 36069 ft | 421 kts | 197° |
| 2026-05-07 16:10 | 31.55239 | -90.22395 | 36072 ft | 422 kts | 197° |
| 2026-05-07 16:10 | 31.49405 | -90.23202 | 36073 ft | 423 kts | 197° |
| 2026-05-07 16:11 | 31.43562 | -90.24010 | 36069 ft | 423 kts | 197° |
| 2026-05-07 16:11 | 31.37741 | -90.24813 | 36065 ft | 424 kts | 197° |
| 2026-05-07 16:12 | 31.31871 | -90.25623 | 36061 ft | 425 kts | 197° |
| 2026-05-07 16:12 | 31.28880 | -90.25711 | 36064 ft | 438 kts | 186° |
| 2026-05-07 16:12 | 31.25831 | -90.25466 | 36054 ft | 439 kts | 187° |
| 2026-05-07 16:13 | 31.19762 | -90.25029 | 36060 ft | 440 kts | 187° |
| 2026-05-07 16:13 | 31.13643 | -90.24578 | 36064 ft | 441 kts | 186° |
| 2026-05-07 16:14 | 31.07505 | -90.24126 | 36056 ft | 442 kts | 186° |
| 2026-05-07 16:14 | 31.01367 | -90.23674 | 36058 ft | 442 kts | 186° |
| 2026-05-07 16:15 | 30.95251 | -90.23225 | 36054 ft | 443 kts | 186° |
| 2026-05-07 16:15 | 30.89054 | -90.22770 | 36055 ft | 443 kts | 186° |
| 2026-05-07 16:16 | 30.82928 | -90.22320 | 36059 ft | 444 kts | 186° |
| 2026-05-07 16:16 | 30.76763 | -90.21869 | 36051 ft | 444 kts | 186° |
| 2026-05-07 16:17 | 30.70585 | -90.21417 | 36054 ft | 444 kts | 186° |
| 2026-05-07 16:17 | 30.64409 | -90.20966 | 36058 ft | 444 kts | 186° |
| 2026-05-07 16:18 | 30.58271 | -90.20518 | 36062 ft | 445 kts | 186° |
| 2026-05-07 16:18 | 30.52086 | -90.20068 | 36057 ft | 445 kts | 186° |
| 2026-05-07 16:19 | 30.45904 | -90.19618 | 36060 ft | 445 kts | 185° |
| 2026-05-07 16:19 | 30.39703 | -90.19167 | 36053 ft | 446 kts | 185° |
| 2026-05-07 16:20 | 30.33516 | -90.18718 | 36057 ft | 446 kts | 185° |
| 2026-05-07 16:20 | 30.27313 | -90.18268 | 36040 ft | 446 kts | 186° |
| 2026-05-07 16:21 | 30.21152 | -90.17823 | 36043 ft | 446 kts | 185° |
| 2026-05-07 16:21 | 30.14950 | -90.17374 | 36041 ft | 446 kts | 185° |
| 2026-05-07 16:22 | 30.08738 | -90.16925 | 36042 ft | 447 kts | 185° |
| 2026-05-07 16:22 | 30.02521 | -90.16477 | 36041 ft | 447 kts | 185° |
| 2026-05-07 16:23 | 29.96342 | -90.16032 | 36041 ft | 447 kts | 185° |
| 2026-05-07 16:23 | 29.90123 | -90.15584 | 36039 ft | 448 kts | 185° |
| 2026-05-07 16:24 | 29.83883 | -90.15136 | 36030 ft | 448 kts | 185° |
| 2026-05-07 16:24 | 29.77652 | -90.14689 | 36036 ft | 449 kts | 185° |
| 2026-05-07 16:25 | 29.71442 | -90.14244 | 36029 ft | 449 kts | 185° |
| 2026-05-07 16:25 | 29.65180 | -90.13795 | 36033 ft | 450 kts | 185° |
| 2026-05-07 16:26 | 29.58918 | -90.13348 | 36027 ft | 451 kts | 185° |
| 2026-05-07 16:26 | 29.52645 | -90.12900 | 36029 ft | 452 kts | 185° |
| 2026-05-07 16:27 | 29.46399 | -90.12454 | 36036 ft | 452 kts | 185° |
| 2026-05-07 16:27 | 29.40114 | -90.12007 | 36030 ft | 453 kts | 185° |
| 2026-05-07 16:28 | 29.33810 | -90.11558 | 36032 ft | 454 kts | 185° |
| 2026-05-07 16:28 | 29.27489 | -90.11109 | 36032 ft | 454 kts | 185° |
| 2026-05-07 16:29 | 29.21208 | -90.10663 | 36032 ft | 455 kts | 185° |
| 2026-05-07 16:29 | 29.14889 | -90.10277 | 36035 ft | 454 kts | 186° |
| 2026-05-07 16:30 | 29.08560 | -90.09928 | 36034 ft | 455 kts | 185° |
| 2026-05-07 16:30 | 29.02266 | -90.09577 | 36036 ft | 455 kts | 185° |
| 2026-05-07 16:31 | 28.95928 | -90.09225 | 36038 ft | 455 kts | 185° |
| 2026-05-07 16:31 | 28.89592 | -90.08873 | 36039 ft | 455 kts | 185° |
| 2026-05-07 16:32 | 28.83265 | -90.08522 | 36040 ft | 455 kts | 185° |
| 2026-05-07 16:32 | 28.76972 | -90.08173 | 36037 ft | 455 kts | 185° |
| 2026-05-07 16:33 | 28.70638 | -90.07823 | 36037 ft | 455 kts | 185° |
| 2026-05-07 16:33 | 28.64305 | -90.07473 | 36041 ft | 455 kts | 185° |
| 2026-05-07 16:34 | 28.57965 | -90.07123 | 36041 ft | 455 kts | 185° |
| 2026-05-07 16:34 | 28.51624 | -90.06773 | 36040 ft | 456 kts | 185° |
| 2026-05-07 16:35 | 28.45324 | -90.06426 | 36042 ft | 456 kts | 185° |
| 2026-05-07 16:35 | 28.38981 | -90.06077 | 36040 ft | 456 kts | 185° |
| 2026-05-07 16:36 | 28.32636 | -90.05728 | 36041 ft | 456 kts | 185° |
| 2026-05-07 16:36 | 28.26294 | -90.05380 | 36038 ft | 456 kts | 185° |
| 2026-05-07 16:37 | 28.21017 | -90.05068 | 36038 ft | 456 kts | 184° |
| 2026-05-07 16:37 | 28.14662 | -90.04694 | 36034 ft | 457 kts | 184° |
| 2026-05-07 16:38 | 28.07283 | -90.04260 | 36046 ft | 457 kts | 184° |
| 2026-05-07 16:38 | 28.02000 | -90.03951 | 36039 ft | 457 kts | 184° |
| 2026-05-07 16:39 | 27.95642 | -90.03578 | 36035 ft | 457 kts | 184° |
| 2026-05-07 16:39 | 27.89285 | -90.03206 | 36042 ft | 457 kts | 184° |
| 2026-05-07 16:40 | 27.82968 | -90.02837 | 36037 ft | 457 kts | 184° |
| 2026-05-07 16:40 | 27.76610 | -90.02466 | 36034 ft | 457 kts | 184° |
| 2026-05-07 16:41 | 27.70244 | -90.02095 | 36037 ft | 457 kts | 184° |
| 2026-05-07 16:41 | 27.63883 | -90.01725 | 36037 ft | 458 kts | 184° |
| 2026-05-07 16:42 | 27.57518 | -90.01355 | 36037 ft | 458 kts | 184° |
| 2026-05-07 16:42 | 27.51158 | -90.00985 | 36042 ft | 458 kts | 183° |
| 2026-05-07 16:43 | 27.44784 | -90.00615 | 36041 ft | 458 kts | 183° |
| 2026-05-07 16:43 | 27.38461 | -90.00249 | 36039 ft | 458 kts | 183° |
| 2026-05-07 16:44 | 27.32097 | -89.99880 | 36041 ft | 458 kts | 183° |
| 2026-05-07 16:44 | 27.25729 | -89.99512 | 36042 ft | 458 kts | 183° |
| 2026-05-07 16:45 | 27.19344 | -89.99144 | 36042 ft | 458 kts | 183° |
| 2026-05-07 16:45 | 27.12964 | -89.98775 | 36045 ft | 459 kts | 183° |
| 2026-05-07 16:46 | 27.06632 | -89.98411 | 36041 ft | 459 kts | 183° |
| 2026-05-07 16:46 | 27.00251 | -89.98043 | 36045 ft | 459 kts | 183° |
| 2026-05-07 16:47 | 26.93868 | -89.97676 | 36043 ft | 459 kts | 183° |
| 2026-05-07 16:47 | 26.87484 | -89.97309 | 36042 ft | 459 kts | 183° |
| 2026-05-07 16:48 | 26.81098 | -89.96943 | 36042 ft | 459 kts | 182° |
| 2026-05-07 16:48 | 26.74714 | -89.96577 | 36042 ft | 459 kts | 182° |
| 2026-05-07 16:49 | 26.68371 | -89.96214 | 36048 ft | 459 kts | 182° |
| 2026-05-07 16:49 | 26.61977 | -89.95849 | 36045 ft | 459 kts | 182° |
| 2026-05-07 16:50 | 26.55591 | -89.95484 | 36043 ft | 459 kts | 182° |
| 2026-05-07 16:50 | 26.49207 | -89.95120 | 36044 ft | 460 kts | 182° |
| 2026-05-07 16:51 | 26.42856 | -89.94758 | 36040 ft | 459 kts | 182° |
| 2026-05-07 16:51 | 26.36463 | -89.94394 | 36040 ft | 459 kts | 182° |
| 2026-05-07 16:52 | 26.30067 | -89.94036 | 36035 ft | 460 kts | 182° |
| 2026-05-07 16:52 | 26.23676 | -89.93678 | 36038 ft | 460 kts | 182° |
| 2026-05-07 16:53 | 26.17272 | -89.93320 | 36039 ft | 460 kts | 182° |
| 2026-05-07 16:53 | 26.10911 | -89.92965 | 36035 ft | 460 kts | 182° |
| 2026-05-07 16:54 | 26.04516 | -89.92609 | 36039 ft | 460 kts | 182° |
| 2026-05-07 16:54 | 25.98115 | -89.92252 | 36038 ft | 460 kts | 182° |
| 2026-05-07 16:55 | 25.91708 | -89.91895 | 36035 ft | 460 kts | 182° |
| 2026-05-07 16:55 | 25.85343 | -89.91541 | 36037 ft | 461 kts | 182° |
| 2026-05-07 16:56 | 25.78928 | -89.91185 | 36038 ft | 461 kts | 182° |
| 2026-05-07 16:56 | 25.69356 | -89.90654 | 36032 ft | 461 kts | 182° |
| 2026-05-07 16:57 | 25.62941 | -89.90299 | 36034 ft | 461 kts | 182° |
| 2026-05-07 16:57 | 25.56521 | -89.89943 | 36034 ft | 461 kts | 182° |
| 2026-05-07 16:58 | 25.50108 | -89.89589 | 36036 ft | 461 kts | 182° |
| 2026-05-07 16:58 | 25.43740 | -89.89237 | 36033 ft | 461 kts | 182° |
| 2026-05-07 16:59 | 25.37323 | -89.88883 | 36034 ft | 461 kts | 182° |
| 2026-05-07 16:59 | 25.30908 | -89.88530 | 36035 ft | 461 kts | 181° |
| 2026-05-07 17:00 | 25.24491 | -89.88176 | 36034 ft | 461 kts | 181° |
| 2026-05-07 17:00 | 25.18064 | -89.87823 | 36033 ft | 461 kts | 181° |
| 2026-05-07 17:01 | 25.11687 | -89.87473 | 36035 ft | 462 kts | 181° |
| 2026-05-07 17:01 | 25.05264 | -89.87120 | 36034 ft | 462 kts | 181° |
| 2026-05-07 17:02 | 24.98847 | -89.86769 | 36032 ft | 462 kts | 181° |
| 2026-05-07 17:02 | 24.92419 | -89.86417 | 36034 ft | 462 kts | 181° |
| 2026-05-07 17:03 | 24.85996 | -89.86066 | 36034 ft | 462 kts | 181° |
| 2026-05-07 17:03 | 24.79610 | -89.85716 | 36033 ft | 462 kts | 181° |
| 2026-05-07 17:04 | 24.73190 | -89.85366 | 36025 ft | 462 kts | 181° |
| 2026-05-07 17:04 | 24.66761 | -89.85015 | 36031 ft | 462 kts | 181° |
| 2026-05-07 17:05 | 24.60339 | -89.84665 | 36033 ft | 462 kts | 181° |
| 2026-05-07 17:05 | 24.53907 | -89.84315 | 36025 ft | 462 kts | 181° |
| 2026-05-07 17:06 | 24.47476 | -89.83973 | 36022 ft | 462 kts | 181° |
| 2026-05-07 17:06 | 24.41045 | -89.83640 | 36022 ft | 463 kts | 181° |
| 2026-05-07 17:07 | 24.34607 | -89.83308 | 36020 ft | 463 kts | 181° |
| 2026-05-07 17:07 | 24.28211 | -89.82977 | 36021 ft | 463 kts | 181° |
| 2026-05-07 17:08 | 24.21764 | -89.82645 | 36021 ft | 463 kts | 181° |
| 2026-05-07 17:08 | 24.15321 | -89.82313 | 36015 ft | 463 kts | 181° |
| 2026-05-07 17:09 | 24.08918 | -89.81983 | 36015 ft | 463 kts | 181° |
| 2026-05-07 17:09 | 24.02475 | -89.81651 | 36017 ft | 463 kts | 181° |
| 2026-05-07 17:10 | 23.96020 | -89.81320 | 36017 ft | 464 kts | 181° |
| 2026-05-07 17:10 | 23.89576 | -89.80989 | 36016 ft | 464 kts | 180° |
| 2026-05-07 17:11 | 23.83111 | -89.80658 | 36016 ft | 464 kts | 180° |
| 2026-05-07 17:11 | 23.76696 | -89.80328 | 36016 ft | 464 kts | 180° |
| 2026-05-07 17:12 | 23.70237 | -89.79986 | 36014 ft | 464 kts | 180° |
| 2026-05-07 17:12 | 23.63780 | -89.79644 | 36012 ft | 464 kts | 180° |
| 2026-05-07 17:13 | 23.57321 | -89.79302 | 36011 ft | 464 kts | 180° |
| 2026-05-07 17:13 | 23.50864 | -89.78961 | 36010 ft | 465 kts | 180° |
| 2026-05-07 17:14 | 23.44399 | -89.78620 | 36010 ft | 465 kts | 180° |
| 2026-05-07 17:14 | 23.37923 | -89.78278 | 36009 ft | 465 kts | 180° |
| 2026-05-07 17:15 | 23.31497 | -89.77940 | 36007 ft | 465 kts | 180° |
| 2026-05-07 17:15 | 23.25027 | -89.77599 | 36004 ft | 465 kts | 180° |
| 2026-05-07 17:16 | 23.18562 | -89.77260 | 36005 ft | 465 kts | 180° |
| 2026-05-07 17:16 | 23.12086 | -89.76919 | 36008 ft | 465 kts | 180° |
| 2026-05-07 17:17 | 23.05618 | -89.76580 | 36004 ft | 465 kts | 180° |
| 2026-05-07 17:17 | 22.99183 | -89.76243 | 36000 ft | 465 kts | 180° |
| 2026-05-07 17:18 | 22.92718 | -89.75904 | 35995 ft | 465 kts | 180° |
| 2026-05-07 17:18 | 22.86255 | -89.75566 | 35992 ft | 465 kts | 180° |
| 2026-05-07 17:19 | 22.79775 | -89.75227 | 35998 ft | 465 kts | 180° |
| 2026-05-07 17:19 | 22.73347 | -89.74379 | 35987 ft | 470 kts | 163° |
| 2026-05-07 17:20 | 22.70397 | -89.72844 | 35994 ft | 475 kts | 148° |
| 2026-05-07 17:20 | 22.67855 | -89.70533 | 35996 ft | 480 kts | 135° |
| 2026-05-07 17:20 | 22.65849 | -89.67630 | 35984 ft | 484 kts | 120° |
| 2026-05-07 17:20 | 22.64552 | -89.64316 | 35999 ft | 486 kts | 109° |
| 2026-05-07 17:21 | 22.62405 | -89.57342 | 35991 ft | 488 kts | 109° |
| 2026-05-07 17:21 | 22.60321 | -89.50340 | 35991 ft | 488 kts | 109° |
| 2026-05-07 17:22 | 22.58253 | -89.43336 | 36001 ft | 488 kts | 109° |
| 2026-05-07 17:22 | 22.56185 | -89.36341 | 35992 ft | 488 kts | 109° |
| 2026-05-07 17:23 | 22.54115 | -89.29352 | 35993 ft | 487 kts | 109° |
| 2026-05-07 17:23 | 22.52056 | -89.22407 | 36000 ft | 487 kts | 109° |
| 2026-05-07 17:24 | 22.49981 | -89.15427 | 35996 ft | 487 kts | 109° |
| 2026-05-07 17:24 | 22.47902 | -89.08443 | 35994 ft | 487 kts | 109° |
| 2026-05-07 17:25 | 22.45837 | -89.01518 | 35992 ft | 487 kts | 109° |
| 2026-05-07 17:25 | 22.43755 | -88.94547 | 35996 ft | 487 kts | 109° |
| 2026-05-07 17:26 | 22.42023 | -88.88758 | 35996 ft | 487 kts | 109° |
| 2026-05-07 17:26 | 22.39937 | -88.81798 | 35993 ft | 486 kts | 109° |
| 2026-05-07 17:27 | 22.37850 | -88.74844 | 35992 ft | 486 kts | 109° |
| 2026-05-07 17:27 | 22.35760 | -88.67892 | 35994 ft | 486 kts | 109° |
| 2026-05-07 17:28 | 22.33668 | -88.60947 | 35997 ft | 486 kts | 109° |
| 2026-05-07 17:28 | 22.31576 | -88.54014 | 35433 ft | 481 kts | 109° |
| 2026-05-07 17:29 | 22.30527 | -88.50545 | 34282 ft | 492 kts | 109° |
| 2026-05-07 17:29 | 22.29458 | -88.47008 | 33442 ft | 494 kts | 109° |
| 2026-05-07 17:29 | 22.28393 | -88.43490 | 32641 ft | 492 kts | 109° |
| 2026-05-07 17:29 | 22.27338 | -88.40008 | 31655 ft | 496 kts | 109° |
| 2026-05-07 17:30 | 22.26268 | -88.36475 | 30907 ft | 494 kts | 109° |
| 2026-05-07 17:30 | 22.25193 | -88.32935 | 29846 ft | 498 kts | 110° |
| 2026-05-07 17:30 | 22.24116 | -88.29386 | 28944 ft | 495 kts | 110° |
| 2026-05-07 17:30 | 22.23034 | -88.25839 | 27699 ft | 500 kts | 110° |
| 2026-05-07 17:31 | 22.21950 | -88.22288 | 26817 ft | 496 kts | 110° |
| 2026-05-07 17:31 | 22.20868 | -88.18742 | 25850 ft | 495 kts | 110° |
| 2026-05-07 17:31 | 22.19794 | -88.15216 | 25047 ft | 491 kts | 110° |
| 2026-05-07 17:31 | 22.18735 | -88.11736 | 24394 ft | 484 kts | 109° |
| 2026-05-07 17:32 | 22.17692 | -88.08311 | 23757 ft | 474 kts | 109° |
| 2026-05-07 17:32 | 22.16704 | -88.05060 | 23582 ft | 450 kts | 109° |
| 2026-05-07 17:32 | 22.15747 | -88.01925 | 23449 ft | 430 kts | 110° |
| 2026-05-07 17:32 | 22.14827 | -87.98915 | 23191 ft | 414 kts | 109° |
| 2026-05-07 17:33 | 22.13870 | -87.96044 | 22808 ft | 402 kts | 117° |
| 2026-05-07 17:33 | 22.12299 | -87.93597 | 22289 ft | 394 kts | 135° |
| 2026-05-07 17:33 | 22.10343 | -87.91580 | 21884 ft | 386 kts | 136° |
| 2026-05-07 17:33 | 22.08392 | -87.89593 | 21392 ft | 386 kts | 137° |
| 2026-05-07 17:34 | 22.06436 | -87.87628 | 20918 ft | 384 kts | 137° |
| 2026-05-07 17:34 | 22.04480 | -87.85679 | 20430 ft | 382 kts | 137° |
| 2026-05-07 17:34 | 22.02532 | -87.83747 | 19948 ft | 379 kts | 136° |
| 2026-05-07 17:34 | 22.00591 | -87.81827 | 19465 ft | 377 kts | 136° |
| 2026-05-07 17:35 | 21.98661 | -87.79920 | 18989 ft | 375 kts | 136° |
| 2026-05-07 17:35 | 21.96744 | -87.78027 | 18511 ft | 373 kts | 136° |
| 2026-05-07 17:35 | 21.94828 | -87.76136 | 17975 ft | 374 kts | 136° |
| 2026-05-07 17:35 | 21.92926 | -87.74260 | 17467 ft | 374 kts | 136° |
| 2026-05-07 17:36 | 21.91009 | -87.72369 | 16984 ft | 373 kts | 136° |
| 2026-05-07 17:36 | 21.89098 | -87.70485 | 16484 ft | 372 kts | 136° |
| 2026-05-07 17:36 | 21.87186 | -87.68602 | 15956 ft | 373 kts | 136° |
| 2026-05-07 17:36 | 21.85275 | -87.66720 | 15502 ft | 371 kts | 136° |
| 2026-05-07 17:37 | 21.83386 | -87.64860 | 15044 ft | 364 kts | 136° |
| 2026-05-07 17:37 | 21.81546 | -87.63049 | 14604 ft | 352 kts | 136° |
| 2026-05-07 17:37 | 21.79759 | -87.61291 | 14161 ft | 348 kts | 136° |
| 2026-05-07 17:37 | 21.77972 | -87.59533 | 13713 ft | 345 kts | 136° |
| 2026-05-07 17:38 | 21.76147 | -87.57950 | 13230 ft | 336 kts | 141° |
| 2026-05-07 17:38 | 21.74325 | -87.56450 | 12793 ft | 325 kts | 141° |
| 2026-05-07 17:38 | 21.72567 | -87.54988 | 12386 ft | 314 kts | 140° |
| 2026-05-07 17:38 | 21.70871 | -87.53571 | 11992 ft | 304 kts | 140° |
| 2026-05-07 17:39 | 21.69231 | -87.52195 | 11628 ft | 294 kts | 140° |
| 2026-05-07 17:39 | 21.67647 | -87.50865 | 11272 ft | 284 kts | 140° |
| 2026-05-07 17:39 | 21.66113 | -87.49578 | 10930 ft | 276 kts | 140° |
| 2026-05-07 17:39 | 21.64625 | -87.48328 | 10609 ft | 267 kts | 140° |
| 2026-05-07 17:40 | 21.63158 | -87.47097 | 10137 ft | 269 kts | 140° |
| 2026-05-07 17:40 | 21.61673 | -87.45849 | 9642 ft | 273 kts | 141° |
| 2026-05-07 17:40 | 21.60174 | -87.44592 | 9213 ft | 273 kts | 141° |
| 2026-05-07 17:40 | 21.58684 | -87.43342 | 8872 ft | 271 kts | 141° |
| 2026-05-07 17:41 | 21.57219 | -87.42114 | 8568 ft | 270 kts | 141° |
| 2026-05-07 17:41 | 21.55741 | -87.40875 | 8265 ft | 268 kts | 142° |
| 2026-05-07 17:41 | 21.54273 | -87.39644 | 7966 ft | 267 kts | 141° |
| 2026-05-07 17:41 | 21.52815 | -87.38422 | 7682 ft | 265 kts | 142° |
| 2026-05-07 17:42 | 21.51364 | -87.37212 | 7406 ft | 262 kts | 144° |
| 2026-05-07 17:42 | 21.49843 | -87.36131 | 6943 ft | 262 kts | 147° |
| 2026-05-07 17:42 | 21.48322 | -87.35069 | 6523 ft | 258 kts | 147° |
| 2026-05-07 17:42 | 21.46840 | -87.34027 | 6169 ft | 251 kts | 147° |
| 2026-05-07 17:43 | 21.45403 | -87.33011 | 5841 ft | 243 kts | 147° |
| 2026-05-07 17:43 | 21.44024 | -87.32029 | 5556 ft | 236 kts | 147° |
| 2026-05-07 17:43 | 21.42635 | -87.31035 | 5284 ft | 243 kts | 147° |
| 2026-05-07 17:43 | 21.41238 | -87.30029 | 5017 ft | 246 kts | 147° |
| 2026-05-07 17:44 | 21.39819 | -87.29009 | 4808 ft | 244 kts | 147° |
| 2026-05-07 17:44 | 21.38422 | -87.28009 | 4608 ft | 240 kts | 147° |
| 2026-05-07 17:44 | 21.37043 | -87.27024 | 4361 ft | 237 kts | 147° |
| 2026-05-07 17:44 | 21.35681 | -87.26043 | 4155 ft | 233 kts | 146° |
| 2026-05-07 17:45 | 21.34341 | -87.25081 | 3908 ft | 231 kts | 146° |
| 2026-05-07 17:45 | 21.33013 | -87.24148 | 3692 ft | 225 kts | 146° |
| 2026-05-07 17:45 | 21.31705 | -87.23248 | 3466 ft | 221 kts | 147° |
| 2026-05-07 17:45 | 21.30437 | -87.22359 | 3331 ft | 215 kts | 147° |
| 2026-05-07 17:46 | 21.29199 | -87.21483 | 3078 ft | 210 kts | 147° |
| 2026-05-07 17:46 | 21.28001 | -87.20628 | 2909 ft | 202 kts | 146° |
| 2026-05-07 17:46 | 21.26840 | -87.19819 | 2732 ft | 197 kts | 146° |
| 2026-05-07 17:46 | 21.25693 | -87.19026 | 2579 ft | 196 kts | 146° |
| 2026-05-07 17:47 | 21.24557 | -87.18252 | 2474 ft | 196 kts | 147° |
| 2026-05-07 17:47 | 21.23405 | -87.17475 | 2284 ft | 194 kts | 146° |
| 2026-05-07 17:47 | 21.22270 | -87.16699 | 2117 ft | 192 kts | 147° |
| 2026-05-07 17:47 | 21.21154 | -87.15926 | 2015 ft | 190 kts | 146° |
| 2026-05-07 17:48 | 21.20094 | -87.15185 | 2030 ft | 175 kts | 145° |
| 2026-05-07 17:48 | 21.19341 | -87.14200 | 1895 ft | 173 kts | 112° |
| 2026-05-07 17:48 | 21.18965 | -87.12970 | 1941 ft | 174 kts | 115° |
| 2026-05-07 17:48 | 21.18462 | -87.11797 | 1981 ft | 172 kts | 119° |
| 2026-05-07 17:49 | 21.17885 | -87.10677 | 1975 ft | 171 kts | 123° |
| 2026-05-07 17:49 | 21.17257 | -87.09591 | 1987 ft | 171 kts | 124° |
| 2026-05-07 17:49 | 21.16611 | -87.08523 | 2022 ft | 171 kts | 125° |
| 2026-05-07 17:49 | 21.15964 | -87.07474 | 2002 ft | 171 kts | 125° |
| 2026-05-07 17:50 | 21.15320 | -87.06433 | 1957 ft | 164 kts | 125° |
| 2026-05-07 17:50 | 21.14697 | -87.05429 | 1958 ft | 160 kts | 126° |
| 2026-05-07 17:50 | 21.14080 | -87.04434 | 2002 ft | 160 kts | 126° |
| 2026-05-07 17:50 | 21.13462 | -87.03440 | 1995 ft | 160 kts | 126° |
| 2026-05-07 17:51 | 21.12849 | -87.02456 | 1987 ft | 156 kts | 126° |
| 2026-05-07 17:51 | 21.12263 | -87.01514 | 2030 ft | 150 kts | 126° |
| 2026-05-07 17:51 | 21.11688 | -87.00589 | 2023 ft | 148 kts | 126° |
| 2026-05-07 17:51 | 21.11116 | -86.99671 | 2015 ft | 148 kts | 126° |
| 2026-05-07 17:52 | 21.10533 | -86.98735 | 2000 ft | 155 kts | 126° |
| 2026-05-07 17:52 | 21.09937 | -86.97778 | 1845 ft | 157 kts | 125° |
| 2026-05-07 17:52 | 21.09330 | -86.96805 | 1659 ft | 157 kts | 125° |
| 2026-05-07 17:52 | 21.08738 | -86.95847 | 1456 ft | 146 kts | 124° |
| 2026-05-07 17:53 | 21.08207 | -86.94993 | 1287 ft | 133 kts | 124° |
| 2026-05-07 17:53 | 21.07696 | -86.94174 | 1141 ft | 132 kts | 124° |
| 2026-05-07 17:53 | 21.07191 | -86.93362 | 991 ft | 131 kts | 125° |
| 2026-05-07 17:53 | 21.06685 | -86.92554 | 808 ft | 129 kts | 123° |
| 2026-05-07 17:54 | 21.06191 | -86.91746 | 639 ft | 131 kts | 127° |
| 2026-05-07 17:54 | 21.05683 | -86.90913 | 463 ft | 136 kts | 124° |
| 2026-05-07 17:54 | 21.05153 | -86.90061 | 317 ft | 139 kts | 126° |
| 2026-05-07 17:54 | 21.04607 | -86.89198 | 108 ft | 139 kts | 126° |
| 2026-05-07 17:55 | 21.04098 | -86.88407 | 32 ft | 111 kts | 123° |
| 2026-05-07 17:55 | 21.03784 | -86.87900 | 31 ft | 56 kts | 124° |
| 2026-05-07 17:55 | 21.03625 | -86.87615 | 32 ft | 33 kts | 109° |
| 2026-05-07 17:55 | 21.03599 | -86.87421 | 32 ft | 18 kts | 93° |
| 2026-05-07 17:56 | 21.03571 | -86.87277 | 31 ft | 21 kts | 112° |
| 2026-05-07 17:56 | 21.03505 | -86.87146 | 30 ft | 20 kts | 124° |
| 2026-05-07 17:56 | 21.03423 | -86.87016 | 30 ft | 22 kts | 124° |
| 2026-05-07 17:56 | 21.03345 | -86.86884 | 30 ft | 14 kts | 109° |
| 2026-05-07 17:57 | 21.03373 | -86.86828 | 30 ft | 8 kts | 33° |
| 2026-05-07 17:57 | 21.03407 | -86.86805 | 30 ft | 10 kts | 33° |
| 2026-05-07 17:57 | 21.03452 | -86.86773 | 30 ft | 0 kts | 35° |
| 2026-05-07 17:58 | 21.03454 | -86.86772 | 30 ft | 1 kts | 35° |
| 2026-05-07 17:58 | 21.03471 | -86.86758 | 30 ft | 5 kts | 36° |
| 2026-05-07 17:59 | 21.03504 | -86.86734 | 30 ft | 7 kts | 35° |
| 2026-05-07 17:59 | 21.03546 | -86.86703 | 30 ft | 7 kts | 32° |
| 2026-05-07 17:59 | 21.03551 | -86.86700 | 30 ft | 0 kts | 32° |
| 2026-05-07 18:00 | 21.03555 | -86.86697 | 30 ft | 3 kts | 32° |
| 2026-05-07 18:00 | 21.03587 | -86.86684 | 30 ft | 4 kts | 349° |
| 2026-05-07 18:01 | 21.03599 | -86.86696 | 30 ft | 2 kts | 304° |
| 2026-05-07 18:01 | 21.03618 | -86.86727 | 30 ft | 8 kts | 302° |
| 2026-05-07 18:01 | 21.03635 | -86.86755 | 30 ft | 1 kts | 302° |
| 2026-05-07 18:01 | 21.03636 | -86.86757 | 30 ft | 0 kts | 302° |